createdAt,value
2023-03-01T00:00:14.080Z,15.90
2023-03-01T00:01:14.056Z,17.20
2023-03-01T00:02:14.058Z,16.70
2023-03-01T00:03:14.076Z,16.60
2023-03-01T00:04:14.054Z,16.50
2023-03-01T00:05:14.006Z,16.00
2023-03-01T00:06:14.023Z,16.70
2023-03-01T00:07:14.011Z,16.40
2023-03-01T00:08:14.005Z,15.80
2023-03-01T00:09:13.964Z,17.20
2023-03-01T00:10:14.027Z,15.90
2023-03-01T00:11:14.012Z,16.80
2023-03-01T00:12:13.959Z,18.00
2023-03-01T00:13:13.927Z,15.50
2023-03-01T00:14:13.955Z,16.90
2023-03-01T00:15:13.910Z,17.50
2023-03-01T00:16:14.094Z,16.30
2023-03-01T00:17:13.886Z,16.10
2023-03-01T00:18:13.904Z,16.70
2023-03-01T00:19:13.876Z,16.30
2023-03-01T00:20:13.867Z,16.60
2023-03-01T00:21:13.871Z,16.40
2023-03-01T00:22:13.858Z,16.70
2023-03-01T00:23:13.856Z,17.20
2023-03-01T00:24:13.827Z,18.00
2023-03-01T00:25:13.835Z,18.10
2023-03-01T00:26:13.847Z,16.00
2023-03-01T00:27:13.824Z,16.10
2023-03-01T00:28:13.811Z,17.30
2023-03-01T00:29:13.796Z,18.30
2023-03-01T00:30:13.767Z,17.70
2023-03-01T00:31:13.834Z,16.90
2023-03-01T00:32:13.783Z,18.20
2023-03-01T00:33:13.757Z,17.00
2023-03-01T00:34:13.750Z,17.00
2023-03-01T00:35:13.749Z,17.10
2023-03-01T00:36:13.720Z,17.00
2023-03-01T00:37:13.736Z,16.60
2023-03-01T00:38:13.688Z,15.40
2023-03-01T00:39:13.711Z,16.50
2023-03-01T00:40:13.687Z,17.30
2023-03-01T00:41:13.686Z,17.40
2023-03-01T00:42:13.666Z,17.80
2023-03-01T00:43:13.660Z,16.10
2023-03-01T00:44:13.629Z,16.80
2023-03-01T00:45:13.641Z,17.00
2023-03-01T00:46:13.758Z,17.50
2023-03-01T00:47:13.626Z,16.00
2023-03-01T00:48:13.598Z,17.00
2023-03-01T00:49:13.619Z,17.90
2023-03-01T00:50:13.581Z,16.80
2023-03-01T00:51:13.601Z,17.30
2023-03-01T00:52:13.575Z,16.90
2023-03-01T00:53:13.580Z,17.40
2023-03-01T00:54:13.536Z,18.30
2023-03-01T00:55:13.555Z,16.50
2023-03-01T00:56:13.536Z,17.80
2023-03-01T00:57:13.528Z,17.00
2023-03-01T00:58:13.511Z,17.00
2023-03-01T00:59:13.509Z,16.70
2023-03-01T01:00:13.485Z,17.10
2023-03-01T01:01:13.532Z,18.00
2023-03-01T01:02:13.510Z,16.60
2023-03-01T01:03:13.480Z,17.00
2023-03-01T01:04:13.457Z,18.20
2023-03-01T01:05:13.484Z,16.10
2023-03-01T01:06:13.423Z,17.30
2023-03-01T01:07:13.434Z,18.20
2023-03-01T01:08:13.405Z,16.60
2023-03-01T01:09:13.408Z,16.90
2023-03-01T01:10:13.392Z,17.30
2023-03-01T01:11:13.396Z,17.10
2023-03-01T01:12:13.364Z,18.20
2023-03-01T01:13:13.391Z,16.80
2023-03-01T01:14:13.336Z,17.40
2023-03-01T01:15:13.350Z,17.80
2023-03-01T01:16:13.398Z,17.80
2023-03-01T01:17:13.346Z,17.20
2023-03-01T01:18:13.300Z,17.80
2023-03-01T01:19:13.312Z,16.80
2023-03-01T01:20:13.294Z,17.90
2023-03-01T01:21:13.294Z,19.10
2023-03-01T01:22:13.281Z,18.90
2023-03-01T01:23:13.279Z,17.70
2023-03-01T01:24:13.272Z,19.00
2023-03-01T01:25:13.268Z,18.10
2023-03-01T01:26:13.246Z,17.50
2023-03-01T01:27:13.255Z,18.80
2023-03-01T01:28:13.230Z,17.00
2023-03-01T01:29:13.213Z,17.30
2023-03-01T01:30:13.182Z,18.40
2023-03-01T01:31:13.269Z,17.90
2023-03-01T01:32:13.264Z,18.40
2023-03-01T01:33:13.173Z,17.30
2023-03-01T01:34:13.168Z,17.20
2023-03-01T01:35:13.170Z,17.30
2023-03-01T01:36:13.133Z,18.20
2023-03-01T01:37:13.136Z,18.80
2023-03-01T01:38:13.109Z,19.60
2023-03-01T01:39:13.132Z,18.00
2023-03-01T01:40:13.131Z,17.30
2023-03-01T01:41:13.117Z,16.60
2023-03-01T01:42:13.069Z,17.70
2023-03-01T01:43:13.079Z,16.80
2023-03-01T01:44:13.061Z,17.20
2023-03-01T01:45:13.066Z,18.90
2023-03-01T01:46:13.099Z,19.00
2023-03-01T01:47:13.042Z,18.30
2023-03-01T01:48:13.008Z,17.90
2023-03-01T01:49:13.032Z,18.30
2023-03-01T01:50:12.988Z,19.00
2023-03-01T01:51:13.000Z,18.70
2023-03-01T01:52:13.009Z,17.60
2023-03-01T01:53:12.982Z,18.00
2023-03-01T01:54:12.956Z,18.30
2023-03-01T01:55:12.982Z,17.50
2023-03-01T01:56:12.937Z,18.70
2023-03-01T01:57:12.951Z,18.40
2023-03-01T01:58:12.932Z,20.50
2023-03-01T01:59:12.925Z,20.10
2023-03-01T02:00:12.898Z,18.10
2023-03-01T02:01:12.916Z,18.80
2023-03-01T02:02:12.887Z,19.60
2023-03-01T02:03:13.006Z,18.90
2023-03-01T02:04:12.879Z,17.50
2023-03-01T02:05:12.866Z,19.00
2023-03-01T02:06:12.841Z,18.50
2023-03-01T02:07:12.852Z,18.40
2023-03-01T02:08:12.817Z,20.00
2023-03-01T02:09:12.826Z,20.00
2023-03-01T02:10:12.813Z,19.60
2023-03-01T02:11:12.802Z,20.70
2023-03-01T02:12:12.781Z,18.80
2023-03-01T02:13:12.788Z,19.80
2023-03-01T02:14:12.768Z,19.80
2023-03-01T02:15:12.779Z,19.20
2023-03-01T02:16:12.863Z,19.20
2023-03-01T02:17:12.752Z,19.60
2023-03-01T02:18:12.730Z,19.30
2023-03-01T02:19:12.735Z,18.30
2023-03-01T02:20:12.705Z,19.20
2023-03-01T02:21:12.720Z,18.50
2023-03-01T02:22:12.730Z,19.30
2023-03-01T02:23:12.701Z,20.80
2023-03-01T02:24:12.668Z,18.70
2023-03-01T02:25:12.674Z,18.30
2023-03-01T02:26:12.647Z,19.60
2023-03-01T02:27:12.660Z,22.70
2023-03-01T02:28:12.682Z,20.60
2023-03-01T02:29:12.665Z,19.40
2023-03-01T02:30:12.603Z,21.30
2023-03-01T02:31:12.635Z,18.90
2023-03-01T02:32:12.592Z,19.40
2023-03-01T02:33:12.597Z,20.90
2023-03-01T02:34:12.588Z,18.60
2023-03-01T02:35:12.580Z,20.50
2023-03-01T02:36:12.575Z,20.80
2023-03-01T02:37:12.564Z,19.20
2023-03-01T02:38:12.528Z,20.70
2023-03-01T02:39:12.544Z,22.00
2023-03-01T02:40:12.571Z,19.10
2023-03-01T02:41:12.522Z,20.70
2023-03-01T02:42:12.491Z,19.90
2023-03-01T02:43:12.510Z,19.70
2023-03-01T02:44:12.479Z,21.30
2023-03-01T02:45:12.491Z,21.20
2023-03-01T02:46:12.486Z,19.10
2023-03-01T02:47:12.465Z,19.70
2023-03-01T02:48:12.430Z,20.00
2023-03-01T02:49:12.447Z,20.10
2023-03-01T02:50:12.437Z,20.10
2023-03-01T02:51:12.425Z,20.00
2023-03-01T02:52:12.418Z,19.60
2023-03-01T02:53:12.406Z,19.60
2023-03-01T02:54:12.378Z,20.40
2023-03-01T02:55:12.393Z,20.80
2023-03-01T02:56:12.353Z,19.70
2023-03-01T02:57:12.367Z,20.50
2023-03-01T02:58:12.357Z,19.80
2023-03-01T02:59:12.365Z,20.20
2023-03-01T03:00:12.324Z,20.80
2023-03-01T03:01:12.395Z,19.80
2023-03-01T03:02:12.304Z,19.90
2023-03-01T03:03:12.314Z,21.60
2023-03-01T03:04:12.298Z,20.80
2023-03-01T03:05:12.300Z,23.60
2023-03-01T03:06:12.258Z,19.90
2023-03-01T03:07:12.282Z,20.20
2023-03-01T03:08:12.290Z,20.20
2023-03-01T03:09:12.263Z,19.60
2023-03-01T03:10:12.267Z,20.30
2023-03-01T03:11:12.241Z,20.20
2023-03-01T03:12:12.227Z,21.10
2023-03-01T03:13:12.220Z,19.90
2023-03-01T03:14:12.184Z,20.00
2023-03-01T03:15:12.196Z,21.30
2023-03-01T03:16:12.235Z,21.40
2023-03-01T03:17:12.186Z,21.20
2023-03-01T03:18:12.148Z,21.30
2023-03-01T03:19:12.159Z,21.80
2023-03-01T03:20:12.130Z,21.80
2023-03-01T03:21:12.138Z,21.10
2023-03-01T03:22:12.119Z,19.60
2023-03-01T03:23:12.120Z,20.00
2023-03-01T03:24:12.105Z,21.20
2023-03-01T03:25:12.103Z,20.80
2023-03-01T03:26:12.085Z,19.80
2023-03-01T03:27:12.086Z,22.50
2023-03-01T03:28:12.075Z,20.80
2023-03-01T03:29:12.075Z,20.30
2023-03-01T03:30:12.035Z,20.90
2023-03-01T03:31:12.106Z,20.50
2023-03-01T03:32:12.019Z,21.10
2023-03-01T03:33:13.667Z,21.20
2023-03-01T03:34:12.012Z,20.80
2023-03-01T03:35:12.001Z,19.00
2023-03-01T03:36:11.979Z,20.90
2023-03-01T03:37:11.989Z,19.20
2023-03-01T03:38:11.966Z,20.40
2023-03-01T03:39:11.964Z,19.60
2023-03-01T03:40:11.974Z,19.80
2023-03-01T03:41:11.944Z,21.30
2023-03-01T03:42:11.917Z,20.70
2023-03-01T03:43:11.924Z,20.20
2023-03-01T03:44:11.895Z,19.30
2023-03-01T03:45:11.907Z,20.60
2023-03-01T03:46:11.937Z,21.30
2023-03-01T03:47:11.903Z,20.60
2023-03-01T03:48:11.861Z,20.10
2023-03-01T03:49:11.872Z,20.60
2023-03-01T03:50:11.845Z,20.60
2023-03-01T03:51:11.866Z,19.60
2023-03-01T03:52:11.839Z,21.20
2023-03-01T03:53:11.832Z,20.40
2023-03-01T03:54:11.805Z,20.60
2023-03-01T03:55:11.895Z,20.60
2023-03-01T03:56:11.776Z,21.50
2023-03-01T03:57:11.794Z,19.40
2023-03-01T03:58:11.786Z,21.40
2023-03-01T03:59:11.772Z,22.90
2023-03-01T04:00:11.744Z,19.80
2023-03-01T04:01:11.811Z,21.00
2023-03-01T04:02:11.735Z,21.30
2023-03-01T04:03:11.750Z,21.10
2023-03-01T04:04:11.738Z,20.80
2023-03-01T04:05:11.720Z,19.80
2023-03-01T04:06:11.687Z,20.80
2023-03-01T04:07:11.695Z,21.50
2023-03-01T04:08:11.665Z,20.90
2023-03-01T04:09:11.683Z,21.20
2023-03-01T04:10:11.677Z,20.80
2023-03-01T04:11:11.662Z,21.70
2023-03-01T04:12:11.635Z,22.00
2023-03-01T04:13:11.643Z,21.40
2023-03-01T04:14:11.612Z,21.90
2023-03-01T04:15:11.622Z,21.50
2023-03-01T04:16:11.668Z,21.30
2023-03-01T04:17:11.603Z,20.90
2023-03-01T04:18:11.574Z,21.20
2023-03-01T04:19:11.584Z,20.00
2023-03-01T04:20:11.552Z,20.70
2023-03-01T04:21:11.568Z,22.00
2023-03-01T04:22:11.545Z,20.70
2023-03-01T04:23:11.907Z,20.00
2023-03-01T04:24:11.531Z,20.70
2023-03-01T04:25:11.543Z,20.90
2023-03-01T04:26:11.494Z,20.00
2023-03-01T04:27:11.506Z,22.40
2023-03-01T04:28:11.509Z,21.20
2023-03-01T04:29:11.497Z,22.70
2023-03-01T04:30:11.459Z,21.60
2023-03-01T04:31:11.477Z,21.40
2023-03-01T04:32:11.560Z,21.30
2023-03-01T04:33:11.452Z,21.40
2023-03-01T04:34:11.433Z,20.60
2023-03-01T04:35:11.433Z,21.60
2023-03-01T04:36:11.558Z,20.90
2023-03-01T04:37:11.394Z,21.60
2023-03-01T04:38:11.408Z,22.00
2023-03-01T04:39:11.369Z,22.50
2023-03-01T04:40:11.408Z,22.20
2023-03-01T04:41:11.353Z,24.10
2023-03-01T04:42:11.372Z,22.30
2023-03-01T04:43:11.342Z,21.00
2023-03-01T04:44:11.347Z,23.20
2023-03-01T04:45:11.312Z,22.40
2023-03-01T04:46:12.434Z,24.00
2023-03-01T04:47:11.294Z,21.00
2023-03-01T04:48:11.322Z,22.30
2023-03-01T04:49:11.275Z,22.80
2023-03-01T04:50:11.292Z,23.10
2023-03-01T04:51:11.370Z,20.90
2023-03-01T04:52:11.304Z,21.70
2023-03-01T04:53:11.238Z,22.00
2023-03-01T04:54:11.258Z,22.10
2023-03-01T04:55:11.240Z,22.40
2023-03-01T04:56:11.238Z,21.10
2023-03-01T04:57:11.204Z,22.90
2023-03-01T04:58:11.238Z,21.60
2023-03-01T04:59:11.184Z,21.10
2023-03-01T05:00:11.206Z,23.40
2023-03-01T05:01:11.171Z,21.60
2023-03-01T05:02:11.176Z,22.30
2023-03-01T05:03:11.159Z,24.20
2023-03-01T05:04:11.188Z,22.60
2023-03-01T05:05:11.120Z,22.20
2023-03-01T05:06:11.139Z,22.00
2023-03-01T05:07:11.103Z,21.60
2023-03-01T05:08:11.117Z,21.20
2023-03-01T05:09:11.100Z,25.00
2023-03-01T05:10:11.117Z,23.60
2023-03-01T05:11:11.065Z,22.20
2023-03-01T05:12:11.081Z,22.10
2023-03-01T05:13:11.056Z,22.00
2023-03-01T05:14:11.060Z,21.30
2023-03-01T05:15:11.031Z,21.90
2023-03-01T05:16:11.107Z,22.10
2023-03-01T05:17:11.008Z,22.00
2023-03-01T05:18:11.029Z,22.40
2023-03-01T05:19:10.991Z,22.30
2023-03-01T05:20:11.031Z,22.20
2023-03-01T05:21:10.974Z,22.60
2023-03-01T05:22:11.004Z,22.40
2023-03-01T05:23:10.950Z,22.40
2023-03-01T05:24:10.999Z,22.90
2023-03-01T05:25:10.931Z,23.20
2023-03-01T05:26:25.902Z,23.60
2023-03-01T05:27:10.917Z,23.20
2023-03-01T05:28:10.951Z,22.00
2023-03-01T05:29:10.907Z,22.10
2023-03-01T05:30:10.907Z,22.20
2023-03-01T05:31:10.978Z,21.60
2023-03-01T05:32:10.936Z,22.70
2023-03-01T05:33:10.873Z,22.80
2023-03-01T05:34:10.894Z,23.80
2023-03-01T05:35:10.849Z,26.20
2023-03-01T05:36:10.845Z,23.40
2023-03-01T05:37:10.828Z,23.10
2023-03-01T05:38:10.843Z,24.20
2023-03-01T05:39:10.802Z,22.50
2023-03-01T05:40:10.828Z,23.40
2023-03-01T05:41:10.778Z,24.20
2023-03-01T05:42:10.793Z,22.20
2023-03-01T05:43:10.764Z,25.10
2023-03-01T05:44:10.774Z,25.10
2023-03-01T05:45:10.757Z,24.20
2023-03-01T05:46:10.815Z,23.60
2023-03-01T05:47:10.723Z,24.30
2023-03-01T05:48:10.740Z,22.80
2023-03-01T05:49:10.710Z,23.80
2023-03-01T05:50:10.723Z,23.60
2023-03-01T05:51:10.687Z,23.20
2023-03-01T05:52:10.734Z,25.50
2023-03-01T05:53:10.666Z,23.10
2023-03-01T05:54:10.684Z,24.50
2023-03-01T05:55:10.653Z,25.20
2023-03-01T05:56:10.664Z,25.90
2023-03-01T05:57:10.629Z,24.50
2023-03-01T05:58:10.672Z,22.90
2023-03-01T05:59:10.608Z,25.80
2023-03-01T06:00:10.622Z,26.00
2023-03-01T06:01:10.590Z,24.60
2023-03-01T06:02:10.614Z,24.70
2023-03-01T06:03:10.574Z,24.90
2023-03-01T06:04:10.639Z,25.40
2023-03-01T06:05:10.769Z,24.20
2023-03-01T06:06:10.567Z,26.10
2023-03-01T06:07:10.534Z,24.00
2023-03-01T06:08:10.546Z,25.80
2023-03-01T06:09:10.518Z,25.70
2023-03-01T06:10:10.564Z,25.80
2023-03-01T06:11:10.499Z,25.10
2023-03-01T06:12:11.560Z,26.80
2023-03-01T06:13:10.476Z,25.90
2023-03-01T06:14:10.495Z,26.50
2023-03-01T06:15:10.462Z,25.30
2023-03-01T06:16:10.547Z,24.60
2023-03-01T06:17:10.439Z,24.00
2023-03-01T06:18:10.457Z,25.60
2023-03-01T06:19:10.420Z,25.80
2023-03-01T06:20:10.432Z,24.80
2023-03-01T06:21:10.403Z,25.30
2023-03-01T06:22:10.431Z,24.20
2023-03-01T06:23:10.793Z,25.10
2023-03-01T06:24:10.413Z,25.70
2023-03-01T06:25:10.372Z,24.80
2023-03-01T06:26:10.382Z,25.60
2023-03-01T06:27:10.353Z,25.40
2023-03-01T06:28:10.383Z,26.40
2023-03-01T06:29:10.325Z,27.50
2023-03-01T06:30:10.343Z,26.40
2023-03-01T06:31:10.394Z,25.20
2023-03-01T06:32:10.334Z,24.80
2023-03-01T06:33:10.312Z,25.40
2023-03-01T06:34:10.384Z,27.60
2023-03-01T06:35:11.846Z,25.70
2023-03-01T06:36:10.284Z,25.10
2023-03-01T06:37:10.255Z,25.80
2023-03-01T06:38:10.265Z,24.30
2023-03-01T06:39:10.232Z,23.70
2023-03-01T06:40:10.299Z,25.80
2023-03-01T06:41:10.212Z,27.10
2023-03-01T06:42:10.225Z,26.40
2023-03-01T06:43:10.191Z,26.90
2023-03-01T06:44:10.211Z,25.30
2023-03-01T06:45:10.180Z,26.60
2023-03-01T06:46:10.256Z,24.10
2023-03-01T06:47:10.158Z,24.40
2023-03-01T06:48:10.169Z,25.80
2023-03-01T06:49:10.146Z,25.90
2023-03-01T06:50:10.193Z,24.90
2023-03-01T06:51:10.117Z,24.10
2023-03-01T06:52:10.168Z,23.10
2023-03-01T06:53:10.105Z,23.00
2023-03-01T06:54:10.111Z,23.30
2023-03-01T06:55:10.081Z,25.00
2023-03-01T06:56:10.090Z,25.30
2023-03-01T06:57:10.064Z,23.50
2023-03-01T06:58:10.093Z,24.40
2023-03-01T06:59:10.051Z,23.40
2023-03-01T07:00:10.070Z,26.10
2023-03-01T07:01:10.023Z,23.60
2023-03-01T07:02:10.033Z,24.00
2023-03-01T07:03:10.142Z,25.00
2023-03-01T07:04:10.045Z,22.50
2023-03-01T07:05:09.989Z,23.10
2023-03-01T07:06:09.991Z,23.80
2023-03-01T07:07:09.967Z,24.20
2023-03-01T07:08:09.971Z,23.10
2023-03-01T07:09:09.940Z,26.00
2023-03-01T07:10:09.973Z,22.50
2023-03-01T07:11:09.920Z,24.70
2023-03-01T07:12:09.936Z,22.40
2023-03-01T07:13:09.906Z,23.30
2023-03-01T07:14:09.912Z,20.80
2023-03-01T07:15:09.879Z,23.30
2023-03-01T07:16:09.951Z,22.40
2023-03-01T07:17:09.864Z,21.70
2023-03-01T07:18:09.878Z,21.50
2023-03-01T07:19:09.843Z,20.20
2023-03-01T07:20:09.859Z,23.60
2023-03-01T07:21:09.829Z,22.10
2023-03-01T07:22:09.850Z,21.10
2023-03-01T07:23:09.807Z,21.60
2023-03-01T07:24:09.828Z,22.10
2023-03-01T07:25:09.781Z,19.60
2023-03-01T07:26:09.798Z,21.70
2023-03-01T07:27:09.762Z,21.10
2023-03-01T07:28:09.807Z,21.50
2023-03-01T07:29:09.746Z,20.60
2023-03-01T07:30:09.756Z,19.80
2023-03-01T07:31:09.724Z,20.80
2023-03-01T07:32:09.863Z,20.20
2023-03-01T07:33:09.892Z,19.40
2023-03-01T07:34:09.743Z,21.80
2023-03-01T07:35:09.689Z,20.90
2023-03-01T07:36:09.711Z,20.60
2023-03-01T07:37:09.664Z,19.40
2023-03-01T07:38:09.681Z,20.80
2023-03-01T07:39:09.662Z,20.80
2023-03-01T07:40:09.691Z,20.70
2023-03-01T07:41:09.622Z,20.20
2023-03-01T07:42:09.640Z,22.80
2023-03-01T07:43:09.606Z,20.90
2023-03-01T07:44:09.618Z,20.80
2023-03-01T07:45:09.586Z,21.60
2023-03-01T07:46:09.638Z,20.00
2023-03-01T07:47:09.565Z,20.10
2023-03-01T07:48:09.583Z,20.80
2023-03-01T07:49:09.544Z,19.10
2023-03-01T07:50:09.554Z,21.10
2023-03-01T07:51:09.528Z,20.60
2023-03-01T07:52:09.552Z,20.10
2023-03-01T07:53:09.503Z,20.60
2023-03-01T07:54:09.521Z,21.70
2023-03-01T07:55:09.483Z,20.30
2023-03-01T07:56:09.508Z,19.70
2023-03-01T07:57:09.472Z,20.60
2023-03-01T07:58:09.502Z,20.80
2023-03-01T07:59:09.443Z,19.40
2023-03-01T08:00:09.475Z,19.10
2023-03-01T08:01:09.425Z,20.00
2023-03-01T08:02:09.522Z,19.40
2023-03-01T08:03:09.436Z,21.30
2023-03-01T08:04:09.474Z,18.70
2023-03-01T08:05:09.382Z,21.80
2023-03-01T08:06:09.397Z,19.20
2023-03-01T08:07:09.362Z,18.40
2023-03-01T08:08:09.375Z,18.70
2023-03-01T08:09:09.344Z,17.90
2023-03-01T08:10:09.377Z,19.40
2023-03-01T08:11:09.326Z,18.80
2023-03-01T08:12:09.334Z,18.30
2023-03-01T08:13:09.309Z,19.40
2023-03-01T08:14:09.317Z,18.60
2023-03-01T08:15:09.279Z,19.10
2023-03-01T08:16:09.326Z,19.90
2023-03-01T08:17:09.260Z,21.40
2023-03-01T08:18:09.275Z,21.30
2023-03-01T08:19:09.245Z,20.10
2023-03-01T08:20:09.260Z,18.70
2023-03-01T08:21:09.226Z,18.40
2023-03-01T08:22:09.260Z,18.70
2023-03-01T08:23:09.222Z,19.10
2023-03-01T08:24:09.212Z,20.70
2023-03-01T08:25:09.178Z,19.90
2023-03-01T08:26:09.198Z,20.20
2023-03-01T08:27:09.154Z,19.90
2023-03-01T08:28:09.192Z,19.90
2023-03-01T08:29:09.158Z,20.50
2023-03-01T08:30:09.162Z,21.00
2023-03-01T08:31:09.115Z,20.20
2023-03-01T08:32:09.376Z,20.30
2023-03-01T08:33:09.145Z,19.00
2023-03-01T08:34:09.123Z,18.20
2023-03-01T08:35:09.084Z,18.40
2023-03-01T08:36:09.094Z,17.60
2023-03-01T08:37:09.054Z,18.40
2023-03-01T08:38:09.069Z,18.90
2023-03-01T08:39:09.047Z,17.70
2023-03-01T08:40:09.069Z,17.80
2023-03-01T08:41:09.027Z,18.70
2023-03-01T08:42:09.038Z,17.70
2023-03-01T08:43:08.996Z,17.00
2023-03-01T08:44:09.014Z,18.80
2023-03-01T08:45:08.993Z,17.50
2023-03-01T08:46:09.034Z,19.50
2023-03-01T08:47:08.968Z,18.10
2023-03-01T08:48:08.978Z,18.40
2023-03-01T08:49:08.947Z,20.50
2023-03-01T08:50:08.958Z,16.70
2023-03-01T08:51:08.920Z,19.50
2023-03-01T08:52:08.930Z,18.00
2023-03-01T08:53:08.922Z,18.40
2023-03-01T08:54:08.888Z,17.30
2023-03-01T08:55:08.898Z,17.40
2023-03-01T08:56:08.880Z,17.00
2023-03-01T08:57:08.889Z,18.80
2023-03-01T08:58:08.869Z,19.40
2023-03-01T08:59:08.874Z,19.10
2023-03-01T09:00:08.829Z,17.90
2023-03-01T09:01:08.843Z,18.50
2023-03-01T09:02:08.874Z,17.70
2023-03-01T09:03:08.817Z,17.90
2023-03-01T09:04:42.806Z,17.90
2023-03-01T09:05:43.768Z,17.40
2023-03-01T09:06:43.788Z,17.20
2023-03-01T09:07:43.857Z,18.20
2023-03-01T09:08:43.767Z,16.60
2023-03-01T09:09:43.741Z,16.40
2023-03-01T09:10:43.747Z,16.10
2023-03-01T09:11:43.705Z,16.40
2023-03-01T09:12:43.720Z,17.60
2023-03-01T09:13:44.389Z,16.20
2023-03-01T09:14:43.702Z,16.90
2023-03-01T09:15:43.695Z,17.10
2023-03-01T09:16:43.823Z,15.60
2023-03-01T09:17:43.647Z,16.60
2023-03-01T09:18:43.662Z,16.30
2023-03-01T09:19:43.636Z,17.30
2023-03-01T09:20:43.637Z,16.60
2023-03-01T09:21:43.624Z,16.50
2023-03-01T09:22:43.593Z,17.40
2023-03-01T09:23:43.606Z,16.20
2023-03-01T09:24:43.572Z,16.40
2023-03-01T09:25:43.591Z,15.60
2023-03-01T09:26:43.554Z,16.20
2023-03-01T09:27:43.641Z,16.30
2023-03-01T09:28:43.540Z,16.70
2023-03-01T09:29:43.547Z,16.50
2023-03-01T09:30:43.539Z,15.20
2023-03-01T09:31:43.534Z,16.80
2023-03-01T09:32:43.572Z,15.90
2023-03-01T09:33:43.548Z,15.70
2023-03-01T09:34:43.473Z,16.70
2023-03-01T09:35:43.509Z,14.70
2023-03-01T09:36:43.458Z,16.40
2023-03-01T09:37:43.458Z,16.00
2023-03-01T09:38:43.434Z,16.00
2023-03-01T09:39:43.457Z,16.50
2023-03-01T09:40:43.408Z,17.40
2023-03-01T09:41:43.425Z,16.30
2023-03-01T09:42:43.383Z,16.50
2023-03-01T09:43:47.787Z,17.40
2023-03-01T09:44:43.387Z,17.20
2023-03-01T09:45:43.361Z,15.10
2023-03-01T09:46:43.362Z,16.00
2023-03-01T09:47:43.332Z,14.90
2023-03-01T09:48:43.342Z,15.60
2023-03-01T09:49:43.310Z,16.70
2023-03-01T09:50:43.320Z,15.50
2023-03-01T09:51:43.312Z,15.30
2023-03-01T09:52:43.312Z,15.90
2023-03-01T09:53:43.269Z,16.80
2023-03-01T09:54:43.285Z,16.00
2023-03-01T09:55:43.251Z,17.20
2023-03-01T09:56:43.252Z,15.40
2023-03-01T09:57:43.257Z,15.60
2023-03-01T09:58:43.241Z,14.80
2023-03-01T09:59:43.204Z,15.10
2023-03-01T10:00:43.214Z,15.60
2023-03-01T10:01:43.191Z,15.30
2023-03-01T10:02:43.198Z,15.30
2023-03-01T10:03:43.229Z,15.00
2023-03-01T10:04:43.247Z,15.10
2023-03-01T10:05:43.146Z,15.60
2023-03-01T10:06:43.181Z,14.20
2023-03-01T10:07:43.140Z,14.90
2023-03-01T10:08:43.142Z,14.30
2023-03-01T10:09:43.113Z,15.50
2023-03-01T10:10:43.128Z,15.10
2023-03-01T10:11:43.377Z,15.10
2023-03-01T10:12:43.094Z,15.30
2023-03-01T10:13:43.054Z,16.60
2023-03-01T10:14:43.069Z,14.80
2023-03-01T10:15:43.108Z,16.80
2023-03-01T10:16:43.049Z,14.40
2023-03-01T10:17:43.027Z,15.50
2023-03-01T10:18:43.035Z,16.00
2023-03-01T10:19:43.023Z,15.10
2023-03-01T10:20:43.009Z,14.60
2023-03-01T10:21:43.164Z,15.20
2023-03-01T10:22:42.989Z,15.40
2023-03-01T10:23:42.959Z,16.10
2023-03-01T10:24:42.963Z,16.10
2023-03-01T10:25:43.657Z,14.30
2023-03-01T10:26:42.955Z,14.70
2023-03-01T10:27:42.922Z,16.30
2023-03-01T10:28:42.923Z,15.80
2023-03-01T10:29:42.887Z,15.70
2023-03-01T10:30:42.904Z,15.90
2023-03-01T10:31:42.876Z,16.00
2023-03-01T10:32:42.878Z,15.10
2023-03-01T10:33:42.865Z,14.20
2023-03-01T10:34:42.866Z,14.80
2023-03-01T10:35:42.925Z,15.30
2023-03-01T10:36:42.840Z,16.00
2023-03-01T10:37:42.805Z,15.30
2023-03-01T10:38:42.818Z,14.70
2023-03-01T10:39:42.802Z,15.00
2023-03-01T10:40:42.794Z,15.10
2023-03-01T10:41:42.763Z,14.00
2023-03-01T10:42:42.782Z,14.70
2023-03-01T10:43:42.743Z,14.00
2023-03-01T10:44:42.751Z,15.40
2023-03-01T10:45:42.744Z,14.50
2023-03-01T10:46:42.875Z,13.10
2023-03-01T10:47:42.698Z,14.20
2023-03-01T10:48:42.717Z,14.70
2023-03-01T10:49:42.674Z,15.20
2023-03-01T10:50:42.694Z,15.70
2023-03-01T10:51:42.668Z,15.00
2023-03-01T10:52:42.669Z,14.80
2023-03-01T10:53:42.641Z,14.30
2023-03-01T10:54:42.649Z,16.80
2023-03-01T10:55:42.612Z,14.50
2023-03-01T10:56:42.627Z,14.70
2023-03-01T10:57:43.126Z,14.40
2023-03-01T10:58:42.604Z,14.10
2023-03-01T10:59:42.573Z,14.20
2023-03-01T11:00:42.580Z,13.80
2023-03-01T11:01:42.583Z,14.90
2023-03-01T11:02:42.562Z,15.30
2023-03-01T11:03:42.541Z,13.60
2023-03-01T11:04:42.560Z,14.80
2023-03-01T11:05:42.508Z,14.10
2023-03-01T11:06:42.549Z,14.30
2023-03-01T11:07:42.486Z,15.20
2023-03-01T11:08:42.499Z,14.90
2023-03-01T11:09:42.475Z,14.30
2023-03-01T11:10:42.474Z,15.20
2023-03-01T11:11:42.445Z,13.80
2023-03-01T11:12:42.459Z,13.80
2023-03-01T11:13:42.420Z,14.60
2023-03-01T11:14:42.445Z,13.80
2023-03-01T11:15:42.475Z,14.60
2023-03-01T11:16:42.411Z,15.10
2023-03-01T11:17:53.179Z,13.70
2023-03-01T11:18:48.169Z,15.10
2023-03-01T11:19:46.848Z,13.40
2023-03-01T11:20:42.396Z,13.80
2023-03-01T11:21:42.418Z,14.90
2023-03-01T11:22:42.346Z,14.40
2023-03-01T11:23:42.313Z,13.80
2023-03-01T11:24:43.521Z,14.80
2023-03-01T11:25:42.296Z,15.80
2023-03-01T11:26:42.300Z,14.20
2023-03-01T11:27:42.277Z,14.00
2023-03-01T11:28:42.279Z,14.60
2023-03-01T11:29:48.476Z,14.60
2023-03-01T11:30:42.277Z,13.70
2023-03-01T11:31:56.794Z,15.50
2023-03-01T11:32:42.385Z,13.90
2023-03-01T11:33:42.228Z,14.80
2023-03-01T11:34:42.213Z,14.80
2023-03-01T11:35:43.213Z,16.30
2023-03-01T11:36:42.190Z,14.00
2023-03-01T11:37:42.162Z,14.40
2023-03-01T11:38:42.203Z,15.20
2023-03-01T11:39:42.158Z,14.90
2023-03-01T11:40:42.143Z,14.00
2023-03-01T11:41:42.109Z,14.70
2023-03-01T11:42:42.129Z,14.40
2023-03-01T11:43:42.088Z,15.50
2023-03-01T11:44:42.108Z,16.10
2023-03-01T11:45:42.084Z,15.00
2023-03-01T11:46:42.240Z,15.30
2023-03-01T11:47:42.220Z,13.90
2023-03-01T11:48:49.522Z,14.80
2023-03-01T11:49:42.052Z,14.60
2023-03-01T11:50:42.051Z,14.90
2023-03-01T11:51:42.021Z,15.80
2023-03-01T11:52:42.016Z,14.30
2023-03-01T11:53:41.980Z,14.40
2023-03-01T11:54:41.997Z,13.80
2023-03-01T11:55:41.956Z,15.20
2023-03-01T11:56:41.969Z,14.60
2023-03-01T11:57:44.130Z,15.40
2023-03-01T11:58:41.947Z,15.40
2023-03-01T11:59:41.914Z,14.30
2023-03-01T12:00:41.944Z,15.00
2023-03-01T12:01:42.770Z,13.50
2023-03-01T12:02:41.935Z,16.40
2023-03-01T12:03:41.884Z,13.00
2023-03-01T12:04:41.963Z,15.00
2023-03-01T12:05:41.848Z,14.20
2023-03-01T12:06:41.857Z,15.70
2023-03-01T12:07:41.828Z,14.10
2023-03-01T12:08:41.840Z,14.90
2023-03-01T12:09:41.821Z,14.20
2023-03-01T12:10:41.817Z,14.60
2023-03-01T12:11:42.161Z,14.10
2023-03-01T12:12:41.796Z,14.50
2023-03-01T12:13:41.767Z,14.80
2023-03-01T12:14:41.777Z,14.00
2023-03-01T12:15:41.775Z,13.70
2023-03-01T12:16:41.796Z,15.30
2023-03-01T12:17:41.728Z,13.10
2023-03-01T12:18:41.759Z,13.70
2023-03-01T12:19:41.696Z,15.30
2023-03-01T12:20:41.737Z,13.30
2023-03-01T12:21:41.706Z,12.30
2023-03-01T12:22:41.711Z,13.10
2023-03-01T12:23:41.650Z,14.20
2023-03-01T12:24:41.666Z,13.60
2023-03-01T12:25:41.629Z,13.40
2023-03-01T12:26:41.647Z,13.50
2023-03-01T12:27:41.633Z,13.50
2023-03-01T12:28:41.625Z,13.70
2023-03-01T12:29:41.595Z,13.10
2023-03-01T12:30:41.600Z,13.90
2023-03-01T12:31:41.607Z,13.10
2023-03-01T12:32:41.637Z,12.90
2023-03-01T12:33:41.664Z,13.40
2023-03-01T12:34:41.566Z,12.70
2023-03-01T12:35:41.569Z,13.50
2023-03-01T12:36:41.535Z,13.50
2023-03-01T12:37:43.096Z,12.80
2023-03-01T12:38:41.518Z,12.80
2023-03-01T12:39:41.504Z,13.60
2023-03-01T12:40:41.490Z,13.30
2023-03-01T12:41:41.462Z,13.40
2023-03-01T12:42:41.485Z,13.30
2023-03-01T12:43:41.437Z,13.20
2023-03-01T12:44:42.674Z,14.10
2023-03-01T12:45:41.468Z,12.80
2023-03-01T12:46:41.425Z,12.40
2023-03-01T12:47:41.403Z,13.90
2023-03-01T12:48:41.414Z,12.20
2023-03-01T12:49:41.378Z,12.40
2023-03-01T12:50:41.397Z,14.30
2023-03-01T12:51:41.378Z,12.70
2023-03-01T12:52:41.371Z,13.30